ENSD/SDN METAR and TAF weather

Enter ICAO airport designator
Station Type Date Time Source
ENSD METAR 2021/05/17 20:20 UTC NOAA

ENSD 172020Z 30010KT 280V340 9999 FEW035 SCT065 11/06 Q1001 RMK WIND 1138FT 28011KT


Station Type Date Time Source
ENSD Decoded METAR 2021/05/17 20:20 UTC NOAA

Sandane / Anda, Norway (ENSD) 61-50N 006-07E 60M
May 17, 2021 - 04:20 PM EDT / 2021.05.17 2020 UTC
Wind: from the WNW (300 degrees) at 12 MPH (10 KT) (direction variable):0
Visibility: greater than 7 mile(s):0
Sky conditions: partly cloudy
Temperature: 51 F (11 C)
Dew Point: 42 F (6 C)
Relative Humidity: 71%
Pressure (altimeter): 29.56 in. Hg (1001 hPa)
ob: ENSD 172020Z 30010KT 280V340 9999 FEW035 SCT065 11/06 Q1001 RMK WIND 1138FT 28011KT
cycle: 20

Station Type Date Time Source
ENSD TAF UTC NOAA

Error!

Example: see airport list